Time;durP1;ratioP1;P1;durP2;ratioP2;P2;SDS_P1;SDS_P2;PMS_P1;PMS_P2;Temp;Humidity;BMP_temperature;BMP_pressure;BME280_temperature;BME280_humidity;BME280_pressure;Samples;Min_cycle;Max_cycle;Signal;HPM_P1;HPM_P2
2023/12/26 00:02:08;;;;;;;7.30;1.50;;;9.80;99.90;;;;;;5075269;28;20032;-70
2023/12/26 00:04:34;;;;;;;7.22;2.13;;;9.80;99.90;;;;;;5074768;28;20110;-71
2023/12/26 00:06:59;;;;;;;11.23;1.85;;;9.80;99.90;;;;;;5073947;28;20068;-70
2023/12/26 00:09:25;;;;;;;7.55;1.45;;;9.80;99.90;;;;;;5074031;28;20499;-71
2023/12/26 00:11:51;;;;;;;15.38;2.00;;;9.80;99.90;;;;;;5072954;28;20124;-70
2023/12/26 00:14:17;;;;;;;9.18;1.73;;;9.80;99.90;;;;;;5073622;28;20123;-71
2023/12/26 00:16:43;;;;;;;8.55;1.67;;;9.80;99.90;;;;;;5073803;28;20058;-70
2023/12/26 00:19:09;;;;;;;6.93;1.55;;;9.80;99.90;;;;;;5072671;28;20127;-71
2023/12/26 00:21:38;;;;;;;10.38;1.90;;;9.80;99.90;;;;;;5073627;28;20048;-71
2023/12/26 00:24:04;;;;;;;10.45;2.13;;;9.70;99.90;;;;;;5073250;28;20522;-71
2023/12/26 00:26:30;;;;;;;10.50;1.60;;;9.70;99.90;;;;;;5072918;28;20095;-71
2023/12/26 00:28:55;;;;;;;8.95;2.00;;;9.70;99.90;;;;;;5073548;28;20072;-70
2023/12/26 00:31:21;;;;;;;12.15;1.77;;;9.60;99.90;;;;;;5073496;28;20025;-70
2023/12/26 00:33:53;;;;;;;9.02;1.58;;;9.70;99.90;;;;;;5072646;28;20495;-70
2023/12/26 00:36:19;;;;;;;9.85;1.73;;;9.70;99.90;;;;;;5073451;28;20507;-71
2023/12/26 00:38:45;;;;;;;9.27;1.50;;;9.60;99.90;;;;;;5073167;28;20044;-70
2023/12/26 00:41:13;;;;;;;10.38;1.92;;;9.70;99.90;;;;;;5072572;28;20497;-70
2023/12/26 00:43:38;;;;;;;9.57;1.75;;;9.70;99.90;;;;;;5074821;28;20087;-70
2023/12/26 00:46:05;;;;;;;12.30;1.98;;;9.60;99.90;;;;;;5073043;28;20115;-70
2023/12/26 00:48:30;;;;;;;10.65;1.63;;;9.60;99.90;;;;;;5072545;28;20056;-70
2023/12/26 00:50:56;;;;;;;15.05;2.00;;;9.60;99.90;;;;;;5073030;28;20036;-71
2023/12/26 00:53:22;;;;;;;11.88;1.98;;;9.60;99.90;;;;;;5072149;28;20135;-70
2023/12/26 00:55:47;;;;;;;12.32;1.90;;;9.50;99.90;;;;;;5074577;28;20083;-71
2023/12/26 00:58:13;;;;;;;8.15;1.67;;;9.50;99.90;;;;;;5072418;28;20105;-70
2023/12/26 01:00:39;;;;;;;17.60;2.65;;;9.50;99.90;;;;;;5072183;28;20070;-70
2023/12/26 01:03:04;;;;;;;12.70;2.10;;;9.50;99.90;;;;;;5074227;28;20049;-71
2023/12/26 01:05:30;;;;;;;15.52;2.58;;;9.50;99.90;;;;;;5074340;28;20123;-70
2023/12/26 01:07:57;;;;;;;10.60;1.85;;;9.40;99.90;;;;;;5073050;28;20045;-70
2023/12/26 01:10:22;;;;;;;14.90;2.00;;;9.40;99.90;;;;;;5072591;28;20048;-70
2023/12/26 01:12:48;;;;;;;18.88;3.05;;;9.40;99.90;;;;;;5073080;28;20047;-70
2023/12/26 01:15:14;;;;;;;9.00;1.80;;;9.30;99.90;;;;;;5071644;28;20150;-70
2023/12/26 01:17:40;;;;;;;16.30;2.40;;;9.40;99.90;;;;;;5072180;28;20107;-70
2023/12/26 01:20:06;;;;;;;16.67;2.40;;;9.40;99.90;;;;;;5072274;28;20049;-70
2023/12/26 01:22:32;;;;;;;9.57;2.08;;;9.40;99.90;;;;;;5071949;28;20060;-70
2023/12/26 01:24:58;;;;;;;11.65;2.20;;;9.40;99.90;;;;;;5072375;28;20110;-70
2023/12/26 01:27:24;;;;;;;16.30;2.10;;;9.40;99.90;;;;;;5072526;28;20094;-70
2023/12/26 01:29:53;;;;;;;14.65;2.00;;;9.30;99.90;;;;;;5071571;28;20076;-70
2023/12/26 01:32:19;;;;;;;13.38;2.15;;;9.30;99.90;;;;;;5071956;28;20409;-71
2023/12/26 01:34:45;;;;;;;16.58;2.42;;;9.20;99.90;;;;;;5073573;28;20044;-70
2023/12/26 01:37:11;;;;;;;10.75;2.70;;;9.20;99.90;;;;;;5071047;28;20469;-70
2023/12/26 01:39:36;;;;;;;9.88;2.25;;;9.20;99.90;;;;;;5072390;28;20045;-70
2023/12/26 01:42:02;;;;;;;14.50;2.22;;;9.20;99.90;;;;;;5071796;28;20135;-70
2023/12/26 01:44:28;;;;;;;15.70;2.17;;;9.20;99.90;;;;;;5072573;28;20044;-71
2023/12/26 01:46:54;;;;;;;12.05;2.45;;;9.30;99.90;;;;;;5072928;28;20139;-70
2023/12/26 01:49:22;;;;;;;12.55;2.45;;;9.30;99.90;;;;;;5071644;28;20048;-71
2023/12/26 01:51:51;;;;;;;13.20;2.65;;;9.30;99.90;;;;;;5071445;28;20049;-70
2023/12/26 01:54:18;;;;;;;12.93;2.55;;;9.30;99.90;;;;;;5071262;28;20040;-70
2023/12/26 01:56:46;;;;;;;13.43;2.35;;;9.30;99.90;;;;;;5104935;28;20057;-70
2023/12/26 01:59:12;;;;;;;11.20;2.38;;;9.30;99.90;;;;;;5071515;28;20044;-70
2023/12/26 02:01:37;;;;;;;15.13;2.65;;;9.20;99.90;;;;;;5073053;28;20043;-70
2023/12/26 02:04:03;;;;;;;11.15;2.38;;;9.20;99.90;;;;;;5070501;28;20109;-71
2023/12/26 02:06:33;;;;;;;12.13;2.30;;;9.10;99.90;;;;;;5071935;28;20048;-70
2023/12/26 02:08:59;;;;;;;14.65;4.72;;;9.00;99.90;;;;;;5071343;28;20040;-71
2023/12/26 02:11:24;;;;;;;10.68;2.03;;;9.00;99.90;;;;;;5072041;28;20048;-71
2023/12/26 02:13:50;;;;;;;9.85;2.25;;;9.00;99.90;;;;;;5071455;28;20049;-71
2023/12/26 02:16:18;;;;;;;16.17;2.63;;;9.00;99.90;;;;;;5071536;28;20041;-71
2023/12/26 02:18:44;;;;;;;14.35;2.30;;;9.00;99.90;;;;;;5070751;28;20454;-71
2023/12/26 02:21:13;;;;;;;13.55;2.15;;;8.90;99.90;;;;;;5070742;28;20132;-71
2023/12/26 02:23:39;;;;;;;13.35;2.10;;;8.90;99.90;;;;;;5071024;28;20537;-71
2023/12/26 02:26:06;;;;;;;14.00;2.60;;;8.90;99.90;;;;;;5071657;28;20039;-71
2023/12/26 02:28:36;;;;;;;15.43;2.28;;;9.00;99.90;;;;;;5071523;28;20048;-71
2023/12/26 02:31:03;;;;;;;9.90;2.13;;;8.90;99.90;;;;;;5072336;28;20048;-71
2023/12/26 02:33:30;;;;;;;16.35;2.33;;;8.90;99.90;;;;;;5070632;28;20052;-71
2023/12/26 02:36:00;;;;;;;15.15;2.35;;;8.90;99.90;;;;;;5071506;28;20048;-70
2023/12/26 02:38:26;;;;;;;15.93;2.17;;;8.90;99.90;;;;;;5071404;28;20048;-70
2023/12/26 02:40:52;;;;;;;13.63;2.85;;;8.80;99.90;;;;;;5070449;28;20488;-71
2023/12/26 02:43:22;;;;;;;19.35;2.60;;;8.80;99.90;;;;;;5070796;28;20048;-71
2023/12/26 02:45:49;;;;;;;15.32;2.55;;;8.70;99.90;;;;;;5070865;28;20060;-71
2023/12/26 02:48:16;;;;;;;15.13;2.63;;;8.60;99.90;;;;;;5069818;28;20109;-71
2023/12/26 02:50:43;;;;;;;10.60;1.95;;;8.60;99.90;;;;;;5071064;28;20049;-71
2023/12/26 02:53:08;;;;;;;13.75;3.25;;;8.60;99.90;;;;;;5070166;28;20101;-71
2023/12/26 02:55:34;;;;;;;11.25;2.58;;;8.50;99.90;;;;;;5071157;28;20123;-71
2023/12/26 02:58:00;;;;;;;10.73;2.08;;;8.40;99.90;;;;;;5070823;28;20135;-71
2023/12/26 03:00:26;;;;;;;8.45;1.85;;;8.40;99.90;;;;;;5070169;28;20036;-70
2023/12/26 03:02:51;;;;;;;8.55;2.28;;;8.30;99.90;;;;;;5070786;28;20041;-71
2023/12/26 03:05:17;;;;;;;11.63;2.78;;;8.30;99.90;;;;;;5070851;28;20393;-71
2023/12/26 03:07:42;;;;;;;12.05;2.53;;;8.20;99.90;;;;;;5070083;28;20045;-71
2023/12/26 03:10:09;;;;;;;11.30;2.33;;;8.20;99.90;;;;;;5071803;28;20044;-71
2023/12/26 03:12:38;;;;;;;12.50;2.65;;;8.10;99.90;;;;;;5070822;28;20049;-71
2023/12/26 03:15:04;;;;;;;13.70;3.10;;;8.10;99.90;;;;;;5070060;28;20052;-71
2023/12/26 03:17:30;;;;;;;11.23;2.38;;;8.10;99.90;;;;;;5070956;28;20037;-71
2023/12/26 03:19:56;;;;;;;14.82;3.50;;;8.00;99.90;;;;;;5071053;28;20553;-71
2023/12/26 03:22:21;;;;;;;18.40;3.05;;;8.00;99.90;;;;;;5070074;28;20040;-71
2023/12/26 03:24:47;;;;;;;19.38;3.30;;;7.90;99.90;;;;;;5071009;28;20595;-71
2023/12/26 03:27:14;;;;;;;15.90;3.13;;;7.90;99.90;;;;;;5070184;28;20139;-71
2023/12/26 03:29:43;;;;;;;18.13;2.83;;;8.00;99.90;;;;;;5070876;28;20105;-71
2023/12/26 03:32:09;;;;;;;15.18;3.03;;;7.90;99.90;;;;;;5071845;28;20503;-71
2023/12/26 03:34:38;;;;;;;14.30;2.70;;;7.90;99.90;;;;;;5074953;28;20062;-71
2023/12/26 03:37:06;;;;;;;23.45;3.33;;;7.90;99.90;;;;;;5073882;28;20048;-71
2023/12/26 03:39:32;;;;;;;16.17;3.55;;;7.80;99.90;;;;;;5074738;28;20142;-71
2023/12/26 03:41:58;;;;;;;13.70;2.58;;;7.90;99.90;;;;;;5074052;28;20182;-71
2023/12/26 03:44:24;;;;;;;15.65;3.05;;;7.90;99.90;;;;;;5073517;28;20053;-71
2023/12/26 03:46:49;;;;;;;;;;;7.80;99.90;;;;;;5074807;28;20055;-71
2023/12/26 03:49:15;;;;;;;14.98;2.67;;;7.90;99.90;;;;;;5073395;28;19921;-71
2023/12/26 03:51:41;;;;;;;14.82;2.55;;;7.80;99.90;;;;;;5074492;28;20056;-71
2023/12/26 03:54:06;;;;;;;12.77;2.50;;;7.80;99.90;;;;;;5074208;28;20044;-71
2023/12/26 03:56:33;;;;;;;15.95;2.92;;;7.80;99.90;;;;;;5073220;28;20052;-71
2023/12/26 03:58:59;;;;;;;15.77;2.85;;;7.80;99.90;;;;;;5073922;28;20427;-71
2023/12/26 04:01:26;;;;;;;15.20;2.55;;;7.80;99.90;;;;;;5108015;28;20094;-70
2023/12/26 04:03:55;;;;;;;12.65;2.28;;;7.80;99.90;;;;;;5073482;28;20074;-71
2023/12/26 04:06:20;;;;;;;17.83;2.58;;;7.80;99.90;;;;;;5074083;28;20385;-71
2023/12/26 04:08:46;;;;;;;19.13;3.15;;;7.70;99.90;;;;;;5074078;28;20163;-70
2023/12/26 04:11:12;;;;;;;15.70;2.75;;;7.70;99.90;;;;;;5072496;28;20411;-71
2023/12/26 04:13:39;;;;;;;19.50;2.80;;;7.70;99.90;;;;;;5074241;28;20048;-71
2023/12/26 04:16:05;;;;;;;11.00;2.10;;;7.70;99.90;;;;;;5073581;28;20040;-71
2023/12/26 04:18:32;;;;;;;17.27;3.33;;;7.70;99.90;;;;;;5073037;28;20503;-71
2023/12/26 04:20:58;;;;;;;17.80;4.45;;;7.60;99.90;;;;;;5073817;28;20044;-70
2023/12/26 04:23:23;;;;;;;14.77;2.60;;;7.60;99.90;;;;;;5073818;28;20059;-71
2023/12/26 04:25:49;;;;;;;15.65;3.13;;;7.70;99.90;;;;;;5072917;28;20127;-71
2023/12/26 04:28:15;;;;;;;18.08;2.85;;;7.70;99.90;;;;;;5073280;28;20083;-71
2023/12/26 04:30:41;;;;;;;14.85;2.88;;;7.70;99.90;;;;;;5073559;28;20048;-71
2023/12/26 04:33:10;;;;;;;11.05;2.60;;;7.70;99.90;;;;;;5072758;28;20063;-71
2023/12/26 04:35:36;;;;;;;9.55;2.90;;;7.70;99.90;;;;;;5073041;28;20123;-71
2023/12/26 04:38:02;;;;;;;16.45;3.17;;;7.70;99.90;;;;;;5074858;28;20071;-71
2023/12/26 04:40:28;;;;;;;15.23;2.78;;;7.80;99.90;;;;;;5072568;28;20098;-71
2023/12/26 04:42:54;;;;;;;13.48;2.58;;;7.80;99.90;;;;;;5072769;28;20514;-71
2023/12/26 04:45:20;;;;;;;12.20;2.40;;;7.80;99.90;;;;;;5072898;28;20052;-71
2023/12/26 04:47:45;;;;;;;15.05;2.53;;;7.70;99.90;;;;;;5072474;28;20056;-71
2023/12/26 04:50:11;;;;;;;15.90;2.45;;;7.70;99.90;;;;;;5073013;28;20044;-71
2023/12/26 04:52:37;;;;;;;15.15;2.80;;;7.80;99.90;;;;;;5073805;28;20048;-71
2023/12/26 04:55:03;;;;;;;15.45;2.75;;;7.80;99.90;;;;;;5074297;28;20380;-71
2023/12/26 04:57:29;;;;;;;17.40;2.80;;;7.80;99.90;;;;;;5073149;28;20396;-71
2023/12/26 04:59:55;;;;;;;14.25;2.47;;;7.90;99.90;;;;;;5073832;28;20036;-71
2023/12/26 05:02:20;;;;;;;18.33;2.60;;;8.00;99.90;;;;;;5073237;28;20044;-71
2023/12/26 05:04:46;;;;;;;11.65;2.55;;;8.00;99.90;;;;;;5073036;28;20484;-71
2023/12/26 05:07:12;;;;;;;14.32;2.47;;;8.10;99.90;;;;;;5071761;28;20472;-71
2023/12/26 05:09:37;;;;;;;13.70;2.42;;;8.20;99.90;;;;;;5072798;28;20488;-71
2023/12/26 05:12:06;;;;;;;12.40;2.50;;;8.30;99.90;;;;;;5072757;28;20055;-71
2023/12/26 05:14:32;;;;;;;11.63;2.08;;;8.30;99.90;;;;;;5072186;28;20057;-71
2023/12/26 05:16:57;;;;;;;12.95;2.50;;;8.30;99.90;;;;;;5074020;28;20052;-71
2023/12/26 05:19:23;;;;;;;12.55;2.38;;;8.30;99.90;;;;;;5072483;28;20044;-71
2023/12/26 05:21:49;;;;;;;9.40;1.90;;;8.30;99.90;;;;;;5073108;28;20507;-72
2023/12/26 05:24:15;;;;;;;10.98;2.20;;;8.30;99.90;;;;;;5072274;28;20115;-71
2023/12/26 05:26:42;;;;;;;10.35;2.40;;;8.30;99.90;;;;;;5072575;28;20450;-71
2023/12/26 05:29:08;;;;;;;11.63;2.50;;;8.30;99.90;;;;;;5072833;28;20048;-71
2023/12/26 05:31:34;;;;;;;11.52;2.78;;;8.40;99.90;;;;;;5072489;28;20136;-71
2023/12/26 05:34:04;;;;;;;15.60;2.30;;;8.40;99.90;;;;;;5072120;28;20485;-71
2023/12/26 05:36:30;;;;;;;12.30;2.63;;;8.40;99.90;;;;;;5071719;28;20041;-71
2023/12/26 05:38:57;;;;;;;10.13;2.63;;;8.40;99.90;;;;;;5072461;28;20412;-71
2023/12/26 05:41:23;;;;;;;14.00;2.67;;;8.30;99.90;;;;;;5073309;28;20036;-71
2023/12/26 05:43:49;;;;;;;17.35;2.70;;;8.40;99.90;;;;;;5071004;28;20051;-71
2023/12/26 05:46:14;;;;;;;11.55;2.42;;;8.30;99.90;;;;;;5071615;28;20052;-71
2023/12/26 05:48:43;;;;;;;;;;;8.30;99.90;;;;;;5072548;28;20048;-71
2023/12/26 05:51:10;;;;;;;12.50;2.35;;;8.20;99.90;;;;;;5071303;28;19974;-70
2023/12/26 05:53:36;;;;;;;12.50;2.60;;;8.10;99.90;;;;;;5071857;28;20052;-72
2023/12/26 05:56:02;;;;;;;11.90;2.45;;;8.00;99.90;;;;;;5069978;28;20052;-72
2023/12/26 05:58:28;;;;;;;15.63;2.80;;;8.00;99.90;;;;;;5071608;28;20040;-72
2023/12/26 06:00:53;;;;;;;11.95;3.03;;;7.90;99.90;;;;;;5071883;28;20048;-71
2023/12/26 06:03:22;;;;;;;15.73;2.70;;;7.90;99.90;;;;;;5070983;28;20079;-71
2023/12/26 06:05:47;;;;;;;13.55;2.95;;;7.90;99.90;;;;;;5072835;28;20472;-72
2023/12/26 06:08:14;;;;;;;12.90;2.72;;;7.80;99.90;;;;;;5072641;28;20054;-71
2023/12/26 06:10:39;;;;;;;18.70;3.15;;;7.80;99.90;;;;;;5070970;28;20059;-72
2023/12/26 06:13:05;;;;;;;12.90;2.90;;;7.80;99.90;;;;;;5071535;28;20177;-72
2023/12/26 06:15:34;;;;;;;13.25;2.53;;;7.70;99.90;;;;;;5071146;28;20040;-73
2023/12/26 06:18:06;;;;;;;10.25;2.47;;;7.70;99.90;;;;;;5070046;28;20170;-72
2023/12/26 06:20:32;;;;;;;17.95;3.40;;;7.70;99.90;;;;;;5071008;28;20044;-72
2023/12/26 06:22:58;;;;;;;11.45;2.60;;;7.70;99.90;;;;;;5071654;28;20044;-71
2023/12/26 06:25:23;;;;;;;21.83;3.17;;;7.80;99.90;;;;;;5070523;28;20055;-72
2023/12/26 06:27:49;;;;;;;16.88;2.80;;;7.80;99.90;;;;;;5070948;28;20052;-70
2023/12/26 06:30:15;;;;;;;19.35;3.10;;;7.80;99.90;;;;;;5070927;28;20053;-71
2023/12/26 06:32:40;;;;;;;12.93;2.78;;;7.90;99.90;;;;;;5072007;28;20407;-70
2023/12/26 06:35:06;;;;;;;18.35;3.28;;;7.90;99.90;;;;;;5070863;28;20049;-71
2023/12/26 06:37:32;;;;;;;12.15;2.30;;;8.00;99.90;;;;;;5071378;28;20063;-72
2023/12/26 06:39:58;;;;;;;16.50;2.88;;;8.00;99.90;;;;;;5070922;28;20040;-71
2023/12/26 06:42:23;;;;;;;14.18;2.80;;;7.80;99.90;;;;;;5071383;28;20047;-72
2023/12/26 06:44:49;;;;;;;;;;;8.00;99.90;;;;;;5071863;28;21227;-72
2023/12/26 06:47:15;;;;;;;13.48;2.38;;;8.00;99.90;;;;;;5069970;28;20386;-72
2023/12/26 06:49:47;;;;;;;19.67;3.40;;;8.00;99.90;;;;;;5072381;28;20476;-72
2023/12/26 06:52:14;;;;;;;17.73;3.10;;;8.00;99.90;;;;;;5070132;28;20045;-72
2023/12/26 06:54:43;;;;;;;18.50;3.28;;;8.00;99.90;;;;;;5071465;28;20060;-70
2023/12/26 06:57:15;;;;;;;13.18;2.60;;;8.00;99.90;;;;;;5070769;28;20045;-72
2023/12/26 06:59:43;;;;;;;14.27;2.97;;;8.00;99.90;;;;;;5070034;28;20055;-71
2023/12/26 07:02:12;;;;;;;19.38;2.75;;;8.00;99.90;;;;;;5104481;28;20094;-70
2023/12/26 07:04:44;;;;;;;15.55;2.67;;;8.30;99.90;;;;;;5070922;28;20048;-70
2023/12/26 07:07:10;;;;;;;18.58;3.22;;;7.90;99.90;;;;;;5072702;28;20049;-71
2023/12/26 07:09:36;;;;;;;20.08;3.33;;;7.90;99.90;;;;;;5074390;28;20044;-72
2023/12/26 07:12:05;;;;;;;14.30;3.67;;;8.00;99.90;;;;;;5074632;28;20177;-72
2023/12/26 07:14:31;;;;;;;16.70;2.58;;;7.90;99.90;;;;;;5073948;28;20408;-72
2023/12/26 07:16:57;;;;;;;12.73;2.85;;;8.00;99.90;;;;;;5074806;28;20041;-72
2023/12/26 07:19:22;;;;;;;11.75;2.03;;;7.90;99.90;;;;;;5074015;28;20044;-72
2023/12/26 07:21:48;;;;;;;16.25;2.90;;;7.90;99.90;;;;;;5074350;28;20041;-72
2023/12/26 07:24:14;;;;;;;16.67;2.60;;;7.90;99.90;;;;;;5074685;28;20484;-72
2023/12/26 07:26:40;;;;;;;16.67;3.70;;;7.80;99.90;;;;;;5075189;28;20052;-72
2023/12/26 07:29:07;;;;;;;19.05;3.30;;;7.80;99.90;;;;;;5075068;28;20365;-72
2023/12/26 07:31:33;;;;;;;17.42;3.33;;;7.80;99.90;;;;;;5074297;28;20048;-72
2023/12/26 07:34:02;;;;;;;11.55;3.05;;;7.80;99.90;;;;;;5074750;28;20041;-72
2023/12/26 07:36:28;;;;;;;15.77;2.78;;;7.80;99.90;;;;;;5074079;28;20044;-72
2023/12/26 07:38:53;;;;;;;14.05;3.03;;;7.80;99.90;;;;;;5074571;28;20048;-72
2023/12/26 07:41:19;;;;;;;12.00;2.33;;;7.80;99.90;;;;;;5073452;28;20099;-72
2023/12/26 07:43:47;;;;;;;16.90;2.85;;;7.90;99.90;;;;;;5074142;28;20055;-72
2023/12/26 07:46:13;;;;;;;18.00;2.72;;;7.80;99.90;;;;;;5073557;28;20080;-72
2023/12/26 07:48:39;;;;;;;17.40;3.00;;;7.80;99.90;;;;;;5074821;28;20777;-72
2023/12/26 07:51:04;;;;;;;19.15;3.53;;;7.80;99.90;;;;;;5108010;28;20441;-72
2023/12/26 07:53:30;;;;;;;19.70;4.40;;;7.80;99.90;;;;;;5108437;28;20048;-72
2023/12/26 07:55:55;;;;;;;16.58;3.15;;;7.80;99.90;;;;;;5073566;28;20094;-72
2023/12/26 07:58:21;;;;;;;18.80;2.95;;;7.80;99.90;;;;;;5075352;28;20064;-72
2023/12/26 08:00:47;;;;;;;13.77;2.65;;;7.90;99.90;;;;;;5103974;28;20037;-72
2023/12/26 08:03:15;;;;;;;17.13;2.95;;;7.90;99.90;;;;;;5086534;28;20444;-71
2023/12/26 08:05:42;;;;;;;12.57;2.65;;;7.90;99.90;;;;;;5087705;28;20060;-72
2023/12/26 08:08:11;;;;;;;17.15;2.72;;;7.90;99.90;;;;;;5087067;28;20059;-72
2023/12/26 08:10:37;;;;;;;18.63;3.50;;;8.00;99.90;;;;;;5054413;28;20033;-71
2023/12/26 08:13:04;;;;;;;16.08;3.13;;;8.00;99.90;;;;;;5087229;28;20049;-71
2023/12/26 08:15:30;;;;;;;15.30;2.83;;;8.00;99.90;;;;;;5059307;28;20045;-72
2023/12/26 08:17:56;;;;;;;16.42;2.75;;;8.10;99.90;;;;;;5072324;28;20071;-72
2023/12/26 08:20:23;;;;;;;15.30;3.08;;;8.10;99.90;;;;;;5073369;28;20411;-71
2023/12/26 08:22:48;;;;;;;13.35;2.95;;;8.20;99.90;;;;;;5073878;28;20254;-71
2023/12/26 08:25:14;;;;;;;14.00;2.42;;;8.20;99.90;;;;;;5072522;28;20519;-71
2023/12/26 08:27:40;;;;;;;14.23;2.90;;;8.20;99.90;;;;;;5074518;28;20460;-72
2023/12/26 08:30:08;;;;;;;14.48;2.42;;;8.20;99.90;;;;;;5073276;28;20496;-72
2023/12/26 08:32:34;;;;;;;19.90;3.28;;;8.20;99.90;;;;;;5072395;28;20048;-72
2023/12/26 08:34:59;;;;;;;16.08;2.90;;;8.20;99.90;;;;;;5072177;28;20044;-72
2023/12/26 08:37:25;;;;;;;18.70;2.97;;;8.10;99.90;;;;;;5073096;28;20037;-73
2023/12/26 08:39:51;;;;;;;12.07;2.30;;;8.10;99.90;;;;;;5072428;28;20488;-73
2023/12/26 08:42:17;;;;;;;11.02;3.03;;;8.10;99.90;;;;;;5074384;28;20042;-71
2023/12/26 08:44:42;;;;;;;17.23;2.95;;;8.10;99.90;;;;;;5071927;28;20044;-71
2023/12/26 08:47:08;;;;;;;14.45;2.70;;;8.10;99.90;;;;;;5071882;28;20048;-71
2023/12/26 08:49:37;;;;;;;15.93;3.47;;;8.20;99.90;;;;;;5072629;28;20055;-71
2023/12/26 08:52:03;;;;;;;15.73;3.10;;;8.30;99.90;;;;;;5072557;28;20480;-71
2023/12/26 08:54:28;;;;;;;17.52;3.22;;;8.30;99.90;;;;;;5074179;28;20045;-70
2023/12/26 08:56:57;;;;;;;16.42;3.05;;;8.40;99.90;;;;;;5072936;28;20049;-71
2023/12/26 08:59:22;;;;;;;16.58;3.20;;;8.30;99.90;;;;;;5072194;28;20052;-71
2023/12/26 09:01:48;;;;;;;12.93;2.78;;;8.30;99.90;;;;;;5106426;28;20450;-71
2023/12/26 09:04:14;;;;;;;14.10;2.85;;;8.30;99.90;;;;;;5072422;28;20049;-72
2023/12/26 09:06:40;;;;;;;12.65;2.85;;;8.40;99.90;;;;;;5071560;28;20400;-72
2023/12/26 09:09:06;;;;;;;13.02;2.88;;;8.40;99.90;;;;;;5072273;28;20523;-71
2023/12/26 09:11:32;;;;;;;13.65;2.58;;;8.40;99.90;;;;;;5074203;28;20049;-71
2023/12/26 09:13:57;;;;;;;12.40;3.25;;;8.50;99.90;;;;;;5073057;28;20059;-73
2023/12/26 09:16:23;;;;;;;17.83;2.95;;;8.50;99.90;;;;;;5072793;28;20224;-71
2023/12/26 09:18:49;;;;;;;17.88;3.20;;;8.70;99.90;;;;;;5071968;28;20074;-77
2023/12/26 09:21:16;;;;;;;16.08;3.90;;;8.90;99.90;;;;;;5070587;28;20404;-73
2023/12/26 09:23:41;;;;;;;17.33;3.47;;;9.00;99.90;;;;;;5072045;28;20049;-71
2023/12/26 09:26:07;;;;;;;17.88;3.22;;;9.10;99.90;;;;;;5071854;28;20048;-72
2023/12/26 09:28:37;;;;;;;14.00;3.17;;;9.20;99.90;;;;;;5071532;28;20542;-71
2023/12/26 09:31:03;;;;;;;20.48;3.17;;;9.40;99.90;;;;;;5071845;28;20048;-71
2023/12/26 09:33:29;;;;;;;16.50;2.85;;;9.30;99.90;;;;;;5073667;28;20049;-70
2023/12/26 09:35:54;;;;;;;20.55;3.22;;;9.30;99.90;;;;;;5071731;28;20046;-71
2023/12/26 09:38:20;;;;;;;14.45;2.55;;;9.30;99.90;;;;;;5071768;28;20052;-71
2023/12/26 09:40:47;;;;;;;18.50;3.65;;;9.30;99.90;;;;;;5073441;28;20127;-70
2023/12/26 09:43:18;;;;;;;14.63;2.42;;;9.20;99.90;;;;;;5070423;28;20056;-72
2023/12/26 09:45:44;;;;;;;14.50;2.92;;;9.30;99.90;;;;;;5071875;28;20101;-71
2023/12/26 09:48:11;;;;;;;18.25;4.13;;;9.20;99.90;;;;;;5072040;28;20052;-72
2023/12/26 09:50:37;;;;;;;13.43;2.88;;;9.10;99.90;;;;;;5073171;28;20094;-74
2023/12/26 09:53:11;;;;;;;15.98;3.17;;;9.20;99.90;;;;;;5071413;28;20045;-70
2023/12/26 09:55:37;;;;;;;15.32;3.42;;;9.20;99.90;;;;;;5069928;28;20047;-73
2023/12/26 09:58:03;;;;;;;20.30;3.95;;;9.10;99.90;;;;;;5070690;28;20400;-78
2023/12/26 10:00:29;;;;;;;10.25;2.72;;;9.00;99.90;;;;;;5071817;28;20109;-76
2023/12/26 10:02:56;;;;;;;18.90;3.33;;;9.00;99.90;;;;;;5072222;28;20037;-73
2023/12/26 10:05:25;;;;;;;19.10;3.25;;;8.90;99.90;;;;;;5072270;28;20048;-78
2023/12/26 10:07:51;;;;;;;14.60;3.08;;;8.90;99.90;;;;;;5071615;28;20079;-74
2023/12/26 10:10:20;;;;;;;23.23;3.38;;;9.00;99.90;;;;;;5069995;28;20072;-75
2023/12/26 10:12:49;;;;;;;21.52;3.30;;;9.00;99.90;;;;;;5071836;28;20052;-78
2023/12/26 10:15:15;;;;;;;12.88;3.33;;;9.00;99.90;;;;;;5072320;28;20044;-81
2023/12/26 10:17:44;;;;;;;16.35;3.15;;;9.00;99.90;;;;;;5070334;28;20389;-73
2023/12/26 10:20:13;;;;;;;17.67;2.78;;;8.90;99.90;;;;;;5072665;28;20045;-73
2023/12/26 10:22:42;;;;;;;18.45;3.17;;;8.90;99.90;;;;;;5070697;28;20040;-77
2023/12/26 10:25:09;;;;;;;15.38;3.70;;;8.90;99.90;;;;;;5069760;28;20148;-75
2023/12/26 10:27:36;;;;;;;13.57;2.72;;;9.00;99.90;;;;;;5070571;28;20442;-74
2023/12/26 10:30:02;;;;;;;15.38;3.90;;;9.00;99.90;;;;;;5071678;28;20040;-74
2023/12/26 10:32:28;;;;;;;14.00;2.83;;;8.90;99.90;;;;;;5072193;28;20055;-73
2023/12/26 10:34:55;;;;;;;16.98;3.40;;;9.10;99.90;;;;;;5071395;28;20040;-73
2023/12/26 10:37:24;;;;;;;15.80;4.18;;;9.10;99.90;;;;;;5070387;28;20132;-73
2023/12/26 10:39:51;;;;;;;13.85;2.95;;;9.10;99.90;;;;;;5069513;28;20046;-72
2023/12/26 10:42:17;;;;;;;16.75;3.63;;;9.20;99.90;;;;;;5069803;28;20098;-76
2023/12/26 10:45:05;;;;;;;13.50;2.53;;;9.20;99.90;;;;;;5103055;28;20119;-78
2023/12/26 10:47:32;;;;;;;14.77;3.05;;;9.20;99.90;;;;;;5070681;28;20131;-72
2023/12/26 10:50:03;;;;;;;11.25;2.53;;;9.20;99.90;;;;;;5070660;28;20056;-75
2023/12/26 10:52:33;;;;;;;20.27;2.80;;;9.30;99.90;;;;;;5070185;28;20102;-71
2023/12/26 10:55:03;;;;;;;15.77;3.00;;;9.20;99.90;;;;;;5071240;28;20400;-72
2023/12/26 10:57:31;;;;;;;23.38;3.28;;;9.20;99.90;;;;;;5070449;28;20053;-72
2023/12/26 13:51:42;;;;;;;6.97;1.60;;;9.60;99.90;;;;;;5071851;28;20072;-76
2023/12/26 13:54:08;;;;;;;5.45;1.20;;;9.50;99.90;;;;;;5071058;28;20049;-78
2023/12/26 13:56:33;;;;;;;6.28;1.27;;;9.40;99.90;;;;;;5071805;28;20040;-75
2023/12/26 13:58:59;;;;;;;6.43;1.20;;;9.30;99.90;;;;;;5071247;28;20412;-77
2023/12/26 14:01:25;;;;;;;4.22;1.10;;;9.20;99.90;;;;;;5071783;28;20089;-76
2023/12/26 14:03:51;;;;;;;8.95;1.30;;;9.00;99.90;;;;;;5070041;28;20040;-80
2023/12/26 14:06:21;;;;;;;7.00;1.10;;;8.90;99.90;;;;;;5071306;28;20400;-82
2023/12/26 14:08:49;;;;;;;6.20;1.13;;;8.80;99.90;;;;;;5071497;28;20036;-77
2023/12/26 14:11:15;;;;;;;6.20;1.00;;;8.60;99.90;;;;;;5071109;28;20052;-75
2023/12/26 14:13:41;;;;;;;3.60;0.88;;;8.60;99.90;;;;;;5070972;28;20055;-75
2023/12/26 14:16:07;;;;;;;10.63;1.35;;;8.60;99.90;;;;;;5069232;28;20068;-75
2023/12/26 14:18:33;;;;;;;7.78;1.48;;;8.50;99.90;;;;;;5071470;28;20093;-72
2023/12/26 14:21:00;;;;;;;10.85;1.27;;;8.40;99.90;;;;;;5071978;28;20028;-77
2023/12/26 14:23:27;;;;;;;6.32;1.35;;;8.30;99.90;;;;;;5103129;28;20052;-75
2023/12/26 14:25:53;;;;;;;10.10;1.67;;;8.20;99.90;;;;;;5072556;28;20096;-79
2023/12/26 14:28:19;;;;;;;5.68;1.25;;;8.20;99.90;;;;;;5071731;28;20484;-74
2023/12/26 14:30:45;;;;;;;5.68;1.23;;;8.20;99.90;;;;;;5070740;28;20096;-78
2023/12/26 14:33:19;;;;;;;11.52;1.80;;;8.20;99.90;;;;;;5071947;28;20036;-84
2023/12/26 14:35:51;;;;;;;6.05;1.15;;;8.10;99.90;;;;;;5072496;28;20059;-79
2023/12/26 14:38:17;;;;;;;5.20;1.20;;;8.10;99.90;;;;;;5069630;28;20087;-80
2023/12/26 14:40:45;;;;;;;6.38;1.20;;;8.00;99.90;;;;;;5070677;28;20446;-74
2023/12/26 14:43:10;;;;;;;4.55;1.17;;;7.90;99.90;;;;;;5070467;28;20040;-73
2023/12/26 14:46:15;;;;;;;8.05;1.27;;;7.80;99.90;;;;;;5068934;28;21424;-74
2023/12/26 14:49:19;;;;;;;12.32;1.95;;;7.70;99.90;;;;;;5087530;28;20545;-72
2023/12/26 14:52:22;;;;;;;5.95;1.45;;;7.50;99.90;;;;;;5090006;28;20055;-72
2023/12/26 14:55:25;;;;;;;6.70;1.15;;;7.40;99.90;;;;;;5068952;28;20052;-74
2023/12/26 14:58:28;;;;;;;8.35;1.52;;;7.30;99.90;;;;;;5069149;28;20430;-74
2023/12/26 15:01:32;;;;;;;5.35;1.25;;;7.20;99.90;;;;;;5070569;28;20040;-71
2023/12/26 15:04:01;;;;;;;7.53;1.23;;;7.10;99.90;;;;;;5102012;28;20129;-76
2023/12/26 15:06:27;;;;;;;8.15;1.60;;;7.00;99.90;;;;;;5038057;28;20098;-77
2023/12/26 15:08:52;;;;;;;8.07;1.98;;;7.00;99.90;;;;;;5065221;28;20083;-74
2023/12/26 15:11:18;;;;;;;8.68;1.67;;;6.90;99.90;;;;;;5070973;28;20405;-72
2023/12/26 15:13:44;;;;;;;7.90;1.60;;;6.90;99.90;;;;;;5069360;28;20053;-78
2023/12/26 15:16:20;;;;;;;11.52;1.67;;;6.80;99.90;;;;;;5069698;28;20124;-85
2023/12/26 15:18:46;;;;;;;10.57;2.70;;;6.80;99.90;;;;;;5069139;28;20064;-72
2023/12/26 15:21:12;;;;;;;5.78;1.70;;;6.70;99.90;;;;;;5069899;28;20049;-71
2023/12/26 15:23:38;;;;;;;7.68;1.60;;;6.70;99.90;;;;;;5070156;28;20044;-72
2023/12/26 15:26:16;;;;;;;10.10;1.85;;;6.70;99.90;;;;;;5067901;28;20051;-70
2023/12/26 15:28:45;;;;;;;10.32;2.22;;;6.70;99.90;;;;;;5073813;28;20123;-71
2023/12/26 15:31:15;;;;;;;6.75;1.90;;;6.70;99.90;;;;;;5072416;28;20089;-72
2023/12/26 15:33:46;;;;;;;7.68;1.58;;;6.70;99.90;;;;;;5072371;28;20396;-71
2023/12/26 15:36:19;;;;;;;7.78;1.98;;;6.70;99.90;;;;;;5073388;28;20040;-70
2023/12/26 15:38:45;;;;;;;12.40;2.28;;;6.80;99.90;;;;;;5076027;28;20052;-70
2023/12/26 15:41:11;;;;;;;12.38;2.33;;;6.90;99.90;;;;;;5068946;28;20047;-69
2023/12/26 15:43:37;;;;;;;10.25;1.83;;;6.90;99.90;;;;;;5073461;28;20045;-69